createdAt,value
2023-04-02T00:02:21.757Z,13.50
2023-04-02T00:05:16.767Z,16.00
2023-04-02T00:07:49.088Z,22.02
2023-04-02T00:10:33.731Z,16.88
2023-04-02T00:13:17.811Z,13.25
2023-04-02T00:15:49.293Z,10.82
2023-04-02T00:18:23.181Z,11.90
2023-04-02T00:21:19.740Z,14.50
2023-04-02T00:23:47.087Z,11.15
2023-04-02T00:26:43.405Z,10.68
2023-04-02T00:29:15.062Z,11.70
2023-04-02T00:31:44.566Z,10.20
2023-04-02T00:34:38.262Z,14.02
2023-04-02T00:37:06.080Z,12.23
2023-04-02T00:39:42.347Z,14.68
2023-04-02T00:42:12.777Z,15.32
2023-04-02T00:44:45.601Z,20.10
2023-04-02T00:47:47.867Z,13.02
2023-04-02T00:50:15.717Z,13.10
2023-04-02T00:52:48.431Z,12.77
2023-04-02T00:55:21.637Z,15.75
2023-04-02T01:00:29.435Z,12.20
2023-04-02T01:03:18.317Z,11.48
2023-04-02T01:05:50.412Z,10.95
2023-04-02T01:08:23.731Z,9.02
2023-04-02T01:13:26.107Z,15.73
2023-04-02T01:16:20.919Z,17.38
2023-04-02T01:19:02.065Z,10.52
2023-04-02T01:21:53.958Z,13.70
2023-04-02T01:24:22.214Z,12.70
2023-04-02T01:26:59.959Z,14.82
2023-04-02T01:29:42.464Z,12.82
2023-04-02T01:32:13.120Z,17.00
2023-04-02T01:34:44.866Z,14.98
2023-04-02T01:37:14.910Z,10.25
2023-04-02T01:39:44.991Z,15.35
2023-04-02T01:42:14.838Z,11.55
2023-04-02T01:44:48.570Z,16.65
2023-04-02T01:47:18.921Z,15.05
2023-04-02T01:49:46.720Z,12.48
2023-04-02T01:52:25.997Z,10.05
2023-04-02T01:54:53.805Z,12.43
2023-04-02T01:57:21.494Z,12.05
2023-04-02T01:59:48.954Z,14.80
2023-04-02T02:02:16.548Z,20.58
2023-04-02T02:04:44.612Z,18.98
2023-04-02T02:07:20.923Z,14.13
2023-04-02T02:09:53.342Z,18.25
2023-04-02T02:12:21.566Z,15.77
2023-04-02T02:14:50.400Z,16.75
2023-04-02T02:17:24.313Z,14.18
2023-04-02T02:19:57.130Z,14.35
2023-04-02T02:22:39.060Z,13.70
2023-04-02T02:25:13.842Z,11.40
2023-04-02T02:28:04.033Z,16.98
2023-04-02T02:31:28.133Z,12.68
2023-04-02T02:34:04.396Z,18.67
2023-04-02T02:36:40.254Z,16.38
2023-04-02T02:39:13.423Z,16.60
2023-04-02T02:41:49.790Z,12.60
2023-04-02T02:44:23.147Z,16.13
2023-04-02T02:46:54.834Z,16.55
2023-04-02T02:49:28.976Z,15.63
2023-04-02T02:52:13.636Z,13.27
2023-04-02T02:54:55.090Z,11.82
2023-04-02T02:57:33.911Z,11.57
2023-04-02T03:00:05.693Z,13.02
2023-04-02T03:02:36.867Z,15.18
2023-04-02T03:05:07.675Z,12.15
2023-04-02T03:07:37.430Z,20.63
2023-04-02T03:10:41.393Z,10.70
2023-04-02T03:13:27.179Z,13.43
2023-04-02T03:16:09.457Z,15.25
2023-04-02T03:18:51.149Z,15.00
2023-04-02T03:21:25.251Z,16.50
2023-04-02T03:24:01.317Z,15.80
2023-04-02T03:26:38.396Z,19.80
2023-04-02T03:29:19.837Z,12.85
2023-04-02T03:32:06.222Z,13.30
2023-04-02T03:34:46.979Z,13.57
2023-04-02T03:37:33.239Z,18.80
2023-04-02T03:40:15.455Z,18.98
2023-04-02T03:43:00.479Z,20.58
2023-04-02T03:45:32.536Z,10.80
2023-04-02T03:48:16.252Z,13.45
2023-04-02T03:50:46.907Z,12.20
2023-04-02T03:53:14.168Z,16.50
2023-04-02T03:55:43.122Z,12.98
2023-04-02T03:58:29.153Z,15.20
2023-04-02T04:01:12.565Z,17.00
2023-04-02T04:03:45.272Z,15.07
2023-04-02T04:06:23.528Z,17.67
2023-04-02T04:09:01.200Z,11.90
2023-04-02T04:11:34.996Z,13.95
2023-04-02T04:14:16.447Z,10.52
2023-04-02T04:16:54.234Z,16.30
2023-04-02T04:19:39.408Z,17.13
2023-04-02T04:22:15.124Z,11.30
2023-04-02T04:24:46.030Z,8.63
2023-04-02T04:27:33.871Z,16.33
2023-04-02T04:30:36.829Z,12.73
2023-04-02T04:33:16.915Z,14.38
2023-04-02T04:35:52.464Z,13.50
2023-04-02T04:38:28.251Z,18.67
2023-04-02T04:41:02.392Z,17.00
2023-04-02T04:43:32.120Z,17.15
2023-04-02T04:46:08.523Z,13.10
2023-04-02T04:48:38.176Z,15.10
2023-04-02T04:51:37.534Z,18.60
2023-04-02T04:54:05.542Z,18.50
2023-04-02T04:56:35.147Z,20.20
2023-04-02T04:59:27.315Z,17.05
2023-04-02T05:02:24.788Z,20.08
2023-04-02T05:04:53.966Z,20.42
2023-04-02T05:07:29.937Z,18.65
2023-04-02T05:10:20.334Z,26.73
2023-04-02T05:13:07.950Z,20.80
2023-04-02T05:16:01.452Z,24.95
2023-04-02T05:18:36.769Z,16.65
2023-04-02T05:21:07.122Z,14.82
2023-04-02T05:23:58.115Z,14.80
2023-04-02T05:26:32.634Z,13.18
2023-04-02T05:29:36.372Z,18.33
2023-04-02T05:32:14.068Z,15.48
2023-04-02T05:34:47.317Z,15.20
2023-04-02T05:39:52.940Z,13.00
2023-04-02T05:42:31.935Z,15.13
2023-04-02T05:45:09.001Z,13.95
2023-04-02T05:47:41.269Z,15.02
2023-04-02T05:50:40.481Z,19.63
2023-04-02T05:53:23.022Z,20.10
2023-04-02T05:56:00.051Z,13.20
2023-04-02T05:58:44.040Z,16.58
2023-04-02T06:01:49.784Z,14.98
2023-04-02T06:04:32.838Z,12.98
2023-04-02T06:07:19.720Z,17.20
2023-04-02T06:09:58.620Z,16.17
2023-04-02T06:12:32.288Z,14.40
2023-04-02T06:15:01.132Z,10.18
2023-04-02T06:17:43.510Z,11.90
2023-04-02T06:20:16.820Z,12.82
2023-04-02T06:22:51.563Z,15.25
2023-04-02T06:25:28.270Z,14.85
2023-04-02T06:28:00.080Z,20.30
2023-04-02T06:30:39.653Z,11.05
2023-04-02T06:33:08.210Z,10.38
2023-04-02T06:35:39.991Z,8.00
2023-04-02T06:38:19.744Z,13.25
2023-04-02T06:40:53.262Z,13.70
2023-04-02T06:43:51.247Z,10.02
2023-04-02T06:46:41.278Z,9.82
2023-04-02T06:49:51.704Z,13.50
2023-04-02T06:52:28.972Z,13.40
2023-04-02T06:54:57.724Z,11.65
2023-04-02T06:57:25.281Z,19.02
2023-04-02T06:59:54.075Z,15.52
2023-04-02T07:02:26.936Z,12.68
2023-04-02T07:05:05.016Z,16.38
2023-04-02T07:07:34.428Z,15.27
2023-04-02T07:10:04.567Z,11.75
2023-04-02T07:12:31.788Z,12.65
2023-04-02T07:14:58.968Z,13.27
2023-04-02T07:17:27.077Z,13.65
2023-04-02T07:19:54.317Z,12.48
2023-04-02T07:22:23.836Z,9.40
2023-04-02T07:24:55.376Z,10.65
2023-04-02T07:27:22.707Z,12.65
2023-04-02T07:29:49.830Z,8.77
2023-04-02T07:32:17.451Z,10.68
2023-04-02T07:34:44.531Z,11.20
2023-04-02T07:37:14.657Z,14.68
2023-04-02T07:39:41.992Z,10.20
2023-04-02T07:42:09.058Z,15.90
2023-04-02T07:44:36.344Z,14.23
2023-04-02T07:47:04.215Z,10.60
2023-04-02T07:49:31.333Z,14.40
2023-04-02T07:51:58.466Z,11.00
2023-04-02T07:54:27.406Z,10.55
2023-04-02T07:56:54.562Z,12.68
2023-04-02T07:59:21.768Z,12.20
2023-04-02T08:01:49.023Z,13.65
2023-04-02T08:04:21.564Z,10.75
2023-04-02T08:06:49.857Z,10.57
2023-04-02T08:09:17.782Z,8.25
2023-04-02T08:11:46.702Z,9.52
2023-04-02T08:14:14.321Z,13.07
2023-04-02T08:16:47.730Z,13.40
2023-04-02T08:19:15.835Z,10.95
2023-04-02T08:21:43.401Z,13.35
2023-04-02T08:24:10.483Z,11.85
2023-04-02T08:26:37.808Z,15.63
2023-04-02T08:29:05.130Z,10.60
2023-04-02T08:31:32.468Z,14.07
2023-04-02T08:33:59.724Z,13.00
2023-04-02T08:36:33.615Z,15.00
2023-04-02T08:39:01.382Z,11.73
2023-04-02T08:41:31.202Z,13.88
2023-04-02T08:44:19.606Z,12.23
2023-04-02T08:46:52.370Z,12.32
2023-04-02T08:49:43.142Z,9.32
2023-04-02T08:52:23.326Z,6.80
2023-04-02T08:54:51.066Z,12.40
2023-04-02T08:57:37.973Z,11.00
2023-04-02T09:00:13.538Z,10.07
2023-04-02T09:02:47.075Z,16.40
2023-04-02T09:05:21.110Z,11.48
2023-04-02T09:07:50.946Z,12.05
2023-04-02T09:10:19.333Z,9.05
2023-04-02T09:12:53.541Z,9.93
2023-04-02T09:15:29.801Z,11.88
2023-04-02T09:18:04.496Z,14.32
2023-04-02T09:20:31.687Z,10.68
2023-04-02T09:22:59.559Z,9.50
2023-04-02T09:25:32.519Z,13.65
2023-04-02T09:28:05.333Z,9.32
2023-04-02T09:30:32.574Z,13.30
2023-04-02T09:33:07.811Z,11.40
2023-04-02T09:35:38.065Z,11.23
2023-04-02T09:38:08.085Z,11.30
2023-04-02T09:40:59.979Z,10.52
2023-04-02T09:43:30.440Z,9.45
2023-04-02T09:46:18.509Z,9.63
2023-04-02T09:49:03.814Z,11.02
2023-04-02T09:51:36.724Z,11.15
2023-04-02T09:54:04.053Z,9.32
2023-04-02T09:56:33.408Z,13.35
2023-04-02T09:59:12.646Z,12.32
2023-04-02T10:01:41.222Z,11.93
2023-04-02T10:04:44.653Z,13.60
2023-04-02T10:07:30.809Z,9.77
2023-04-02T10:10:04.175Z,11.77
2023-04-02T10:15:06.431Z,14.55
2023-04-02T10:17:38.368Z,10.35
2023-04-02T10:20:22.761Z,9.52
2023-04-02T10:22:50.431Z,10.52
2023-04-02T10:25:21.948Z,6.75
2023-04-02T10:28:43.143Z,9.35
2023-04-02T10:31:25.575Z,11.18
2023-04-02T10:34:02.876Z,11.50
2023-04-02T10:36:39.026Z,12.55
2023-04-02T10:39:37.704Z,9.10
2023-04-02T10:42:26.205Z,16.13
2023-04-02T10:45:05.144Z,11.75
2023-04-02T10:47:32.427Z,12.05
2023-04-02T10:50:14.416Z,11.07
2023-04-02T10:52:57.699Z,17.15
2023-04-02T10:57:56.917Z,10.10
2023-04-02T11:00:37.318Z,11.40
2023-04-02T11:03:13.441Z,14.75
2023-04-02T11:05:44.422Z,12.43
2023-04-02T11:08:23.491Z,12.30
2023-04-02T11:11:10.042Z,10.98
2023-04-02T11:13:53.666Z,11.80
2023-04-02T11:16:21.561Z,12.88
2023-04-02T11:19:16.234Z,10.98
2023-04-02T11:21:59.720Z,14.65
2023-04-02T11:24:31.788Z,11.90
2023-04-02T11:27:36.326Z,18.38
2023-04-02T11:30:11.810Z,11.88
2023-04-02T11:32:43.078Z,13.50
2023-04-02T11:35:38.322Z,16.75
2023-04-02T11:38:12.527Z,11.52
2023-04-02T11:40:52.319Z,12.65
2023-04-02T11:43:36.996Z,16.25
2023-04-02T11:46:19.202Z,15.07
2023-04-02T11:48:46.908Z,13.52
2023-04-02T11:51:23.074Z,14.25
2023-04-02T11:53:54.010Z,9.98
2023-04-02T11:56:39.460Z,10.68
2023-04-02T11:59:26.646Z,15.88
2023-04-02T12:02:04.816Z,10.75
2023-04-02T12:04:40.004Z,13.55
2023-04-02T12:07:52.449Z,20.08
2023-04-02T12:10:22.848Z,12.63
2023-04-02T12:12:51.167Z,13.35
2023-04-02T12:15:57.883Z,16.42
2023-04-02T12:18:25.653Z,11.40
2023-04-02T12:20:56.134Z,16.65
2023-04-02T12:23:29.891Z,11.10
2023-04-02T12:26:02.195Z,13.00
2023-04-02T12:28:31.487Z,10.17
2023-04-02T12:31:15.107Z,13.73
2023-04-02T12:33:43.350Z,17.25
2023-04-02T12:36:16.207Z,15.38
2023-04-02T12:39:16.974Z,14.95
2023-04-02T12:41:44.272Z,14.63
2023-04-02T12:44:17.416Z,12.40
2023-04-02T12:49:41.684Z,10.13
2023-04-02T12:52:14.921Z,10.13
2023-04-02T12:57:30.347Z,13.48
2023-04-02T12:59:58.477Z,12.43
2023-04-02T13:02:31.944Z,9.80
2023-04-02T13:05:01.691Z,10.20
2023-04-02T13:07:33.685Z,12.82
2023-04-02T13:10:03.077Z,12.65
2023-04-02T13:12:37.506Z,10.60
2023-04-02T13:15:17.075Z,11.38
2023-04-02T13:17:48.271Z,10.43
2023-04-02T13:20:38.912Z,9.20
2023-04-02T13:23:30.961Z,11.18
2023-04-02T13:26:01.388Z,13.63
2023-04-02T13:28:29.640Z,9.90
2023-04-02T13:30:57.100Z,9.45
2023-04-02T13:33:24.228Z,11.52
2023-04-02T13:35:51.621Z,12.88
2023-04-02T13:38:18.802Z,11.05
2023-04-02T13:40:46.606Z,15.95
2023-04-02T13:43:19.753Z,12.35
2023-04-02T13:45:51.886Z,12.95
2023-04-02T13:48:19.431Z,15.27
2023-04-02T13:50:46.876Z,16.02
2023-04-02T13:53:22.446Z,12.70
2023-04-02T13:55:49.792Z,27.08
2023-04-02T13:58:17.009Z,15.05
2023-04-02T14:00:44.358Z,10.23
2023-04-02T14:03:22.548Z,13.23
2023-04-02T14:06:10.771Z,15.57
2023-04-02T14:08:51.132Z,16.77
2023-04-02T14:11:27.396Z,15.40
2023-04-02T14:14:23.927Z,14.60
2023-04-02T14:17:11.583Z,14.52
2023-04-02T14:19:59.883Z,14.45
2023-04-02T14:22:48.055Z,15.75
2023-04-02T14:25:36.983Z,14.57
2023-04-02T14:28:23.926Z,16.77
2023-04-02T14:31:05.770Z,15.45
2023-04-02T14:34:16.420Z,17.38
2023-04-02T14:36:56.671Z,14.45
2023-04-02T14:39:38.754Z,16.75
2023-04-02T14:42:44.372Z,15.82
2023-04-02T14:45:23.456Z,11.93
2023-04-02T14:47:57.824Z,15.75
2023-04-02T14:50:33.275Z,17.35
2023-04-02T14:53:13.375Z,12.10
2023-04-02T14:55:44.135Z,15.77
2023-04-02T14:58:31.864Z,16.27
2023-04-02T15:01:03.351Z,11.38
2023-04-02T15:03:43.209Z,15.45
2023-04-02T15:06:21.484Z,8.93
2023-04-02T15:09:09.265Z,14.05
2023-04-02T15:11:41.902Z,17.83
2023-04-02T15:14:20.802Z,11.40
2023-04-02T15:16:48.185Z,11.63
2023-04-02T15:19:18.069Z,11.38
2023-04-02T15:21:57.706Z,11.77
2023-04-02T15:24:51.263Z,12.38
2023-04-02T15:27:34.555Z,12.98
2023-04-02T15:30:13.101Z,16.35
2023-04-02T15:32:41.969Z,13.05
2023-04-02T15:35:22.577Z,12.60
2023-04-02T15:37:53.251Z,9.68
2023-04-02T15:40:24.386Z,15.30
2023-04-02T15:43:20.223Z,14.27
2023-04-02T15:46:08.311Z,17.52
2023-04-02T15:48:53.743Z,14.05
2023-04-02T15:51:33.870Z,19.92
2023-04-02T15:54:11.875Z,14.75
2023-04-02T15:57:01.573Z,17.75
2023-04-02T16:00:22.757Z,17.70
2023-04-02T16:03:11.817Z,14.30
2023-04-02T16:05:50.274Z,17.38
2023-04-02T16:08:33.458Z,17.13
2023-04-02T16:11:00.831Z,13.15
2023-04-02T16:13:35.325Z,12.60
2023-04-02T16:16:07.340Z,15.25
2023-04-02T16:18:49.538Z,18.13
2023-04-02T16:21:22.356Z,18.50
2023-04-02T16:23:50.561Z,16.00
2023-04-02T16:26:27.382Z,18.25
2023-04-02T16:29:16.785Z,20.35
2023-04-02T16:32:11.557Z,25.85
2023-04-02T16:35:23.976Z,18.50
2023-04-02T16:37:58.550Z,17.38
2023-04-02T16:41:07.020Z,17.95
2023-04-02T16:43:42.407Z,17.10
2023-04-02T16:46:38.836Z,26.17
2023-04-02T16:49:38.559Z,28.25
2023-04-02T16:52:25.817Z,21.33
2023-04-02T16:55:09.557Z,18.00
2023-04-02T16:57:50.685Z,20.17
2023-04-02T17:00:32.529Z,22.77
2023-04-02T17:03:19.234Z,22.13
2023-04-02T17:06:01.985Z,17.38
2023-04-02T17:08:57.111Z,18.87
2023-04-02T17:11:30.506Z,16.20
2023-04-02T17:16:43.905Z,16.40
2023-04-02T17:19:14.881Z,17.75
2023-04-02T17:21:45.607Z,23.35
2023-04-02T17:24:21.906Z,18.15
2023-04-02T17:26:54.085Z,21.55
2023-04-02T17:29:35.412Z,21.98
2023-04-02T17:32:06.603Z,21.75
2023-04-02T17:34:33.774Z,17.85
2023-04-02T17:37:07.122Z,17.27
2023-04-02T17:42:36.242Z,17.55
2023-04-02T17:45:19.558Z,24.85
2023-04-02T17:47:59.221Z,16.33
2023-04-02T17:50:37.766Z,21.48
2023-04-02T17:53:21.925Z,23.60
2023-04-02T17:56:22.083Z,25.98
2023-04-02T17:58:55.208Z,24.55
2023-04-02T18:01:22.381Z,27.13
2023-04-02T18:04:03.288Z,26.33
2023-04-02T18:06:42.065Z,23.48
2023-04-02T18:09:22.392Z,19.73
2023-04-02T18:12:01.594Z,23.17
2023-04-02T18:15:02.195Z,31.23
2023-04-02T18:17:51.273Z,27.50
2023-04-02T18:20:34.897Z,30.05
2023-04-02T18:25:42.951Z,27.15
2023-04-02T18:31:19.691Z,20.15
2023-04-02T18:34:30.650Z,19.42
2023-04-02T18:37:15.966Z,31.45
2023-04-02T18:40:22.285Z,37.88
2023-04-02T18:42:51.207Z,26.45
2023-04-02T18:45:35.065Z,24.23
2023-04-02T18:48:35.261Z,27.58
2023-04-02T18:51:06.921Z,30.40
2023-04-02T18:53:37.311Z,26.70
2023-04-02T18:56:11.983Z,17.38
2023-04-02T18:58:53.086Z,12.90
2023-04-02T19:01:28.642Z,17.33
2023-04-02T19:04:04.921Z,16.73
2023-04-02T19:06:47.436Z,16.33
2023-04-02T19:09:25.516Z,18.55
2023-04-02T19:11:54.031Z,21.83
2023-04-02T19:14:24.128Z,17.40
2023-04-02T19:17:17.789Z,18.70
2023-04-02T19:19:45.943Z,13.38
2023-04-02T19:22:24.043Z,18.88
2023-04-02T19:25:02.029Z,14.82
2023-04-02T19:28:12.199Z,16.45
2023-04-02T19:30:57.581Z,19.80
2023-04-02T19:33:42.804Z,23.05
2023-04-02T19:36:16.620Z,14.48
2023-04-02T19:39:17.889Z,18.52
2023-04-02T19:42:22.544Z,17.80
2023-04-02T19:44:52.926Z,19.33
2023-04-02T19:47:21.216Z,18.65
2023-04-02T19:49:49.001Z,14.35
2023-04-02T19:52:16.852Z,21.65
2023-04-02T19:54:44.859Z,20.80
2023-04-02T19:57:17.208Z,19.55
2023-04-02T19:59:45.875Z,24.77
2023-04-02T20:02:13.836Z,24.73
2023-04-02T20:04:43.157Z,22.02
2023-04-02T20:07:11.018Z,24.25
2023-04-02T20:09:38.736Z,22.02
2023-04-02T20:12:07.371Z,21.80
2023-04-02T20:14:35.394Z,25.02
2023-04-02T20:17:03.162Z,19.42
2023-04-02T20:19:30.822Z,25.90
2023-04-02T20:21:58.396Z,22.25
2023-04-02T20:24:26.207Z,24.42
2023-04-02T20:26:53.511Z,21.00
2023-04-02T20:29:22.566Z,25.80
2023-04-02T20:31:50.032Z,28.50
2023-04-02T20:34:18.066Z,27.60
2023-04-02T20:36:46.254Z,26.70
2023-04-02T20:39:19.557Z,30.55
2023-04-02T20:41:47.738Z,21.85
2023-04-02T20:44:14.954Z,20.55
2023-04-02T20:46:42.606Z,25.17
2023-04-02T20:49:09.713Z,20.52
2023-04-02T20:51:36.860Z,22.40
2023-04-02T20:54:04.406Z,23.63
2023-04-02T20:56:31.860Z,27.45
2023-04-02T20:58:59.039Z,14.93
2023-04-02T21:01:30.303Z,29.13
2023-04-02T21:04:02.799Z,13.95
2023-04-02T21:06:32.884Z,19.73
2023-04-02T21:09:02.122Z,22.70
2023-04-02T21:11:29.426Z,18.92
2023-04-02T21:13:56.846Z,17.67
2023-04-02T21:16:29.821Z,14.55
2023-04-02T21:19:00.905Z,18.35
2023-04-02T21:21:28.834Z,21.52
2023-04-02T21:23:59.597Z,15.48
2023-04-02T21:26:28.409Z,19.40
2023-04-02T21:28:56.082Z,15.25
2023-04-02T21:31:25.859Z,18.58
2023-04-02T21:33:55.844Z,17.35
2023-04-02T21:36:26.081Z,17.05
2023-04-02T21:39:01.917Z,15.18
2023-04-02T21:41:32.530Z,18.75
2023-04-02T21:44:03.252Z,14.15
2023-04-02T21:46:33.596Z,12.60
2023-04-02T21:49:01.142Z,11.90
2023-04-02T21:51:31.005Z,14.65
2023-04-02T21:53:59.262Z,10.13
2023-04-02T21:56:31.809Z,12.60
2023-04-02T21:59:01.960Z,14.97
2023-04-02T22:01:34.686Z,12.43
2023-04-02T22:04:04.530Z,16.10
2023-04-02T22:06:33.377Z,13.25
2023-04-02T22:09:05.050Z,13.45
2023-04-02T22:11:35.806Z,12.43
2023-04-02T22:14:03.746Z,9.65
2023-04-02T22:16:32.755Z,6.18
2023-04-02T22:19:02.149Z,8.70
2023-04-02T22:21:30.681Z,8.32
2023-04-02T22:24:01.816Z,6.13
2023-04-02T22:26:31.805Z,7.07
2023-04-02T22:28:59.636Z,8.32
2023-04-02T22:31:29.832Z,6.18
2023-04-02T22:33:58.158Z,6.13
2023-04-02T22:36:26.832Z,5.28
2023-04-02T22:38:54.398Z,5.93
2023-04-02T22:41:26.489Z,7.53
2023-04-02T22:43:55.355Z,7.50
2023-04-02T22:46:23.566Z,8.32
2023-04-02T22:48:51.034Z,11.60
2023-04-02T22:51:20.808Z,11.02
2023-04-02T22:53:49.082Z,16.00
2023-04-02T22:56:21.730Z,12.80
2023-04-02T22:58:49.300Z,11.18
2023-04-02T23:01:23.786Z,16.75
2023-04-02T23:03:53.344Z,14.75
2023-04-02T23:06:20.967Z,14.90
2023-04-02T23:08:48.164Z,12.02
2023-04-02T23:11:23.575Z,11.90
2023-04-02T23:13:52.967Z,13.25
2023-04-02T23:16:22.999Z,16.10
2023-04-02T23:18:51.393Z,14.05
2023-04-02T23:21:20.115Z,16.15
2023-04-02T23:23:48.520Z,20.20
2023-04-02T23:26:19.962Z,13.07
2023-04-02T23:28:47.128Z,14.60
2023-04-02T23:31:20.189Z,12.63
2023-04-02T23:33:47.983Z,13.60
2023-04-02T23:36:21.672Z,12.75
2023-04-02T23:38:48.928Z,12.55
2023-04-02T23:41:17.274Z,14.65
2023-04-02T23:43:44.623Z,15.15
2023-04-02T23:46:11.978Z,13.52
2023-04-02T23:48:39.245Z,12.55
2023-04-02T23:51:07.186Z,15.35
2023-04-02T23:53:34.988Z,15.13
2023-04-02T23:56:02.220Z,16.60
2023-04-02T23:58:29.700Z,13.45
